createdAt,value
2023-01-20T00:01:47.075Z,16.08
2023-01-20T00:04:15.583Z,14.77
2023-01-20T00:06:43.725Z,14.30
2023-01-20T00:09:17.140Z,14.40
2023-01-20T00:11:45.564Z,11.75
2023-01-20T00:14:14.185Z,12.95
2023-01-20T00:16:42.711Z,13.73
2023-01-20T00:19:14.444Z,15.18
2023-01-20T00:21:43.396Z,11.45
2023-01-20T00:24:11.792Z,16.45
2023-01-20T00:26:39.966Z,17.77
2023-01-20T00:29:09.211Z,12.43
2023-01-20T00:31:37.700Z,13.07
2023-01-20T00:34:05.672Z,15.90
2023-01-20T00:36:34.815Z,14.15
2023-01-20T00:39:04.253Z,10.98
2023-01-20T00:41:32.654Z,18.13
2023-01-20T00:44:00.983Z,10.38
2023-01-20T00:46:29.331Z,15.45
2023-01-20T00:48:57.689Z,11.20
2023-01-20T00:51:25.917Z,13.63
2023-01-20T00:53:54.278Z,10.45
2023-01-20T00:56:22.260Z,13.23
2023-01-20T00:58:50.457Z,11.32
2023-01-20T01:01:18.791Z,11.23
2023-01-20T01:03:47.204Z,11.05
2023-01-20T01:06:17.655Z,13.30
2023-01-20T01:08:46.183Z,10.45
2023-01-20T01:11:14.828Z,9.63
2023-01-20T01:13:43.312Z,12.77
2023-01-20T01:16:13.271Z,10.85
2023-01-20T01:18:42.707Z,11.75
2023-01-20T01:21:14.677Z,9.95
2023-01-20T01:23:44.367Z,10.13
2023-01-20T01:26:13.017Z,12.73
2023-01-20T01:28:41.420Z,11.95
2023-01-20T01:31:10.231Z,10.77
2023-01-20T01:33:38.683Z,12.27
2023-01-20T01:36:09.144Z,11.70
2023-01-20T01:38:37.414Z,13.02
2023-01-20T01:41:06.329Z,16.30
2023-01-20T01:43:37.016Z,12.35
2023-01-20T01:46:06.143Z,9.85
2023-01-20T01:48:39.120Z,10.02
2023-01-20T01:51:13.302Z,10.75
2023-01-20T01:53:47.798Z,10.77
2023-01-20T01:56:16.647Z,14.63
2023-01-20T01:58:49.278Z,9.65
2023-01-20T02:01:18.242Z,9.35
2023-01-20T02:04:00.636Z,14.35
2023-01-20T02:06:34.025Z,10.40
2023-01-20T02:09:04.282Z,7.45
2023-01-20T02:11:38.596Z,11.18
2023-01-20T02:14:08.080Z,8.27
2023-01-20T02:16:48.640Z,9.93
2023-01-20T02:19:23.106Z,9.32
2023-01-20T02:22:15.995Z,5.63
2023-01-20T02:25:16.652Z,6.63
2023-01-20T02:28:15.945Z,5.45
2023-01-20T02:31:01.163Z,7.20
2023-01-20T02:33:37.017Z,8.32
2023-01-20T02:36:30.831Z,5.90
2023-01-20T02:39:27.092Z,4.67
2023-01-20T02:41:55.931Z,6.95
2023-01-20T02:44:50.056Z,5.22
2023-01-20T02:47:53.387Z,8.23
2023-01-20T02:50:35.413Z,5.82
2023-01-20T02:53:05.189Z,6.32
2023-01-20T02:55:33.314Z,6.43
2023-01-20T02:58:05.890Z,5.38
2023-01-20T03:00:41.391Z,6.85
2023-01-20T03:03:18.199Z,7.65
2023-01-20T03:05:55.498Z,5.47
2023-01-20T03:08:27.602Z,4.97
2023-01-20T03:11:02.846Z,6.57
2023-01-20T03:13:40.563Z,7.47
2023-01-20T03:16:12.754Z,6.30
2023-01-20T03:18:41.424Z,5.80
2023-01-20T03:21:10.879Z,6.15
2023-01-20T03:23:44.623Z,5.55
2023-01-20T03:26:15.075Z,8.05
2023-01-20T03:28:48.931Z,7.97
2023-01-20T03:31:26.333Z,8.27
2023-01-20T03:33:58.036Z,5.82
2023-01-20T03:36:30.328Z,5.22
2023-01-20T03:39:00.003Z,7.28
2023-01-20T03:41:46.756Z,6.45
2023-01-20T03:44:26.277Z,8.60
2023-01-20T03:47:18.501Z,8.77
2023-01-20T03:50:08.481Z,7.80
2023-01-20T03:52:46.919Z,9.18
2023-01-20T03:55:21.110Z,10.02
2023-01-20T03:57:58.527Z,6.70
2023-01-20T04:00:28.546Z,9.95
2023-01-20T04:03:01.235Z,9.55
2023-01-20T04:05:32.379Z,10.70
2023-01-20T04:08:04.268Z,10.02
2023-01-20T04:10:35.747Z,11.02
2023-01-20T04:13:04.182Z,12.05
2023-01-20T04:15:40.829Z,8.20
2023-01-20T04:18:20.349Z,7.55
2023-01-20T04:20:52.278Z,9.02
2023-01-20T04:23:32.420Z,7.30
2023-01-20T04:26:00.367Z,9.00
2023-01-20T04:28:28.665Z,6.63
2023-01-20T04:30:57.040Z,9.13
2023-01-20T04:33:25.405Z,8.93
2023-01-20T04:35:53.710Z,7.65
2023-01-20T04:38:21.821Z,6.55
2023-01-20T04:40:50.470Z,7.93
2023-01-20T04:43:19.066Z,8.38
2023-01-20T04:45:47.267Z,8.82
2023-01-20T04:48:15.479Z,5.55
2023-01-20T04:50:43.808Z,12.70
2023-01-20T04:53:14.244Z,7.78
2023-01-20T04:55:42.461Z,9.85
2023-01-20T04:58:10.977Z,8.30
2023-01-20T05:00:39.129Z,7.95
2023-01-20T05:03:08.349Z,8.52
2023-01-20T05:05:36.535Z,8.82
2023-01-20T05:08:05.230Z,9.73
2023-01-20T05:10:33.931Z,7.15
2023-01-20T05:13:02.200Z,7.03
2023-01-20T05:15:30.380Z,6.35
2023-01-20T05:17:58.575Z,8.52
2023-01-20T05:20:26.787Z,9.45
2023-01-20T05:22:55.140Z,7.10
2023-01-20T05:25:23.339Z,9.88
2023-01-20T05:27:51.526Z,12.63
2023-01-20T05:30:20.293Z,10.38
2023-01-20T05:32:52.278Z,11.98
2023-01-20T05:35:20.941Z,7.65
2023-01-20T05:37:49.389Z,7.40
2023-01-20T05:40:17.816Z,7.93
2023-01-20T05:42:46.218Z,9.82
2023-01-20T05:45:14.550Z,7.35
2023-01-20T05:47:43.169Z,9.10
2023-01-20T05:50:11.994Z,6.90
2023-01-20T05:52:40.395Z,6.18
2023-01-20T05:55:08.893Z,8.63
2023-01-20T05:57:36.940Z,8.52
2023-01-20T06:00:08.678Z,8.15
2023-01-20T06:02:36.931Z,10.43
2023-01-20T06:05:05.782Z,8.57
2023-01-20T06:07:33.969Z,9.27
2023-01-20T06:10:02.989Z,9.02
2023-01-20T06:12:31.280Z,7.82
2023-01-20T06:14:59.502Z,10.57
2023-01-20T06:17:27.699Z,8.90
2023-01-20T06:19:55.902Z,7.63
2023-01-20T06:22:23.843Z,5.25
2023-01-20T06:24:52.403Z,7.38
2023-01-20T06:27:20.757Z,7.20
2023-01-20T06:29:48.852Z,7.15
2023-01-20T06:32:17.155Z,7.15
2023-01-20T06:34:46.182Z,7.88
2023-01-20T06:37:14.480Z,8.85
2023-01-20T06:39:42.442Z,9.18
2023-01-20T06:42:11.608Z,4.88
2023-01-20T06:44:42.266Z,5.25
2023-01-20T06:47:10.357Z,7.80
2023-01-20T06:49:41.074Z,6.10
2023-01-20T06:52:09.884Z,5.63
2023-01-20T06:54:37.796Z,6.65
2023-01-20T06:57:06.391Z,7.88
2023-01-20T06:59:34.380Z,8.68
2023-01-20T07:02:02.391Z,5.43
2023-01-20T07:04:30.370Z,9.10
2023-01-20T07:06:58.433Z,6.63
2023-01-20T07:09:26.419Z,5.97
2023-01-20T07:11:55.228Z,7.15
2023-01-20T07:14:23.261Z,6.22
2023-01-20T07:16:51.307Z,5.47
2023-01-20T07:19:21.933Z,5.97
2023-01-20T07:21:49.948Z,7.60
2023-01-20T07:24:18.231Z,6.05
2023-01-20T07:26:46.103Z,7.43
2023-01-20T07:29:15.523Z,5.75
2023-01-20T07:31:44.619Z,4.95
2023-01-20T07:34:12.511Z,9.40
2023-01-20T07:36:40.503Z,10.38
2023-01-20T07:39:13.297Z,9.20
2023-01-20T07:41:42.356Z,10.20
2023-01-20T07:44:10.975Z,7.90
2023-01-20T07:46:38.965Z,8.90
2023-01-20T07:49:07.079Z,8.15
2023-01-20T07:51:35.189Z,5.78
2023-01-20T07:54:04.715Z,9.40
2023-01-20T07:56:32.956Z,8.95
2023-01-20T07:59:00.933Z,7.20
2023-01-20T08:01:31.543Z,7.53
2023-01-20T08:04:05.592Z,5.90
2023-01-20T08:09:02.533Z,9.68
2023-01-20T08:11:32.395Z,7.38
2023-01-20T08:14:00.405Z,8.10
2023-01-20T08:16:28.456Z,6.55
2023-01-20T08:18:56.508Z,6.25
2023-01-20T08:21:30.819Z,4.88
2023-01-20T08:24:00.329Z,8.63
2023-01-20T08:26:30.033Z,7.13
2023-01-20T08:29:06.684Z,6.13
2023-01-20T08:31:35.349Z,9.15
2023-01-20T08:34:04.371Z,10.65
2023-01-20T08:36:35.784Z,6.38
2023-01-20T08:39:07.103Z,6.65
2023-01-20T08:44:08.143Z,9.20
2023-01-20T08:46:39.866Z,5.85
2023-01-20T08:49:15.797Z,5.50
2023-01-20T08:51:45.286Z,5.57
2023-01-20T08:54:19.169Z,4.10
2023-01-20T08:56:50.497Z,3.30
2023-01-20T08:59:18.931Z,4.03
2023-01-20T09:01:46.954Z,3.65
2023-01-20T09:04:14.960Z,5.05
2023-01-20T09:06:50.574Z,5.75
2023-01-20T09:09:21.088Z,3.30
2023-01-20T09:11:52.154Z,2.67
2023-01-20T09:14:21.743Z,5.05
2023-01-20T09:16:50.432Z,4.13
2023-01-20T09:19:18.353Z,6.38
2023-01-20T09:21:46.390Z,4.30
2023-01-20T09:24:14.748Z,4.95
2023-01-20T09:26:42.716Z,3.70
2023-01-20T09:29:16.370Z,3.20
2023-01-20T09:31:51.083Z,5.00
2023-01-20T09:34:24.774Z,3.33
2023-01-20T09:36:55.132Z,4.15
2023-01-20T09:39:42.586Z,5.43
2023-01-20T09:42:50.097Z,3.90
2023-01-20T09:45:26.346Z,4.28
2023-01-20T09:48:42.773Z,4.25
2023-01-20T09:51:42.151Z,6.43
2023-01-20T09:54:43.729Z,4.68
2023-01-20T09:57:14.235Z,3.20
2023-01-20T10:00:01.969Z,3.72
2023-01-20T10:02:35.193Z,5.68
2023-01-20T10:05:14.742Z,6.83
2023-01-20T10:07:56.421Z,3.50
2023-01-20T10:11:01.400Z,3.65
2023-01-20T10:13:41.375Z,4.95
2023-01-20T10:16:13.461Z,6.47
2023-01-20T10:18:48.557Z,4.40
2023-01-20T10:21:36.962Z,4.97
2023-01-20T10:24:09.353Z,5.75
2023-01-20T10:26:45.913Z,5.63
2023-01-20T10:29:20.304Z,5.68
2023-01-20T10:32:00.291Z,2.72
2023-01-20T10:34:37.165Z,4.30
2023-01-20T10:37:07.462Z,2.60
2023-01-20T10:40:02.035Z,3.05
2023-01-20T10:44:59.691Z,2.65
2023-01-20T10:47:39.866Z,2.15
2023-01-20T10:50:32.566Z,2.80
2023-01-20T10:53:34.277Z,3.00
2023-01-20T10:56:36.512Z,2.42
2023-01-20T10:59:46.119Z,4.90
2023-01-20T11:02:25.960Z,4.18
2023-01-20T11:05:00.962Z,5.72
2023-01-20T11:07:31.702Z,5.95
2023-01-20T11:10:13.930Z,5.50
2023-01-20T11:12:44.352Z,2.63
2023-01-20T11:15:24.221Z,2.80
2023-01-20T11:18:15.466Z,3.67
2023-01-20T11:20:49.579Z,3.17
2023-01-20T11:23:24.393Z,6.03
2023-01-20T11:26:00.952Z,2.53
2023-01-20T11:28:37.710Z,2.80
2023-01-20T11:31:06.321Z,3.00
2023-01-20T11:33:34.308Z,2.75
2023-01-20T11:36:07.584Z,3.67
2023-01-20T11:39:02.169Z,3.38
2023-01-20T11:41:31.763Z,6.07
2023-01-20T11:44:01.131Z,2.83
2023-01-20T11:46:34.164Z,4.03
2023-01-20T11:49:16.330Z,3.20
2023-01-20T11:51:53.394Z,2.40
2023-01-20T11:54:29.533Z,3.78
2023-01-20T11:57:01.659Z,3.67
2023-01-20T11:59:32.260Z,2.63
2023-01-20T12:02:24.839Z,4.90
2023-01-20T12:05:09.322Z,2.97
2023-01-20T12:10:29.585Z,7.50
2023-01-20T12:13:04.459Z,4.22
2023-01-20T12:15:35.482Z,3.08
2023-01-20T12:18:14.053Z,3.30
2023-01-20T12:21:08.360Z,1.77
2023-01-20T12:24:02.976Z,4.18
2023-01-20T12:29:38.461Z,3.15
2023-01-20T12:32:06.619Z,2.25
2023-01-20T12:34:38.936Z,1.98
2023-01-20T12:37:43.792Z,2.95
2023-01-20T12:40:29.919Z,2.90
2023-01-20T12:43:11.621Z,1.85
2023-01-20T12:46:00.096Z,2.20
2023-01-20T12:48:37.117Z,3.35
2023-01-20T12:51:17.175Z,1.77
2023-01-20T12:54:42.956Z,2.15
2023-01-20T12:57:49.325Z,4.20
2023-01-20T13:00:33.005Z,2.95
2023-01-20T13:03:09.757Z,3.63
2023-01-20T13:06:01.337Z,1.63
2023-01-20T13:08:37.618Z,1.48
2023-01-20T13:11:27.328Z,2.30
2023-01-20T13:14:02.486Z,2.30
2023-01-20T13:17:09.091Z,1.48
2023-01-20T13:19:41.772Z,2.17
2023-01-20T13:22:20.468Z,1.90
2023-01-20T13:24:51.381Z,4.07
2023-01-20T13:27:38.883Z,3.33
2023-01-20T13:30:43.266Z,11.57
2023-01-20T13:33:39.791Z,2.90
2023-01-20T13:36:19.901Z,3.22
2023-01-20T13:38:50.542Z,4.82
2023-01-20T13:41:48.975Z,4.40
2023-01-20T13:44:36.399Z,3.50
2023-01-20T13:47:08.975Z,2.95
2023-01-20T13:50:19.581Z,3.50
2023-01-20T13:52:50.534Z,2.67
2023-01-20T13:55:49.630Z,2.80
2023-01-20T13:58:22.302Z,1.98
2023-01-20T14:00:54.842Z,4.75
2023-01-20T14:03:32.414Z,2.95
2023-01-20T14:06:19.280Z,3.65
2023-01-20T14:08:48.887Z,2.00
2023-01-20T14:11:16.852Z,2.67
2023-01-20T14:13:59.945Z,2.55
2023-01-20T14:16:37.099Z,3.90
2023-01-20T14:19:32.071Z,2.60
2023-01-20T14:22:18.039Z,4.07
2023-01-20T14:24:48.157Z,1.83
2023-01-20T14:27:24.723Z,5.22
2023-01-20T14:29:55.149Z,3.08
2023-01-20T14:32:33.987Z,3.33
2023-01-20T14:35:04.654Z,2.55
2023-01-20T14:37:36.482Z,2.28
2023-01-20T14:40:10.722Z,2.22
2023-01-20T14:42:40.080Z,2.40
2023-01-20T14:45:22.338Z,2.42
2023-01-20T14:47:51.994Z,3.05
2023-01-20T14:50:21.303Z,2.30
2023-01-20T14:52:49.312Z,1.95
2023-01-20T14:56:07.844Z,2.83
2023-01-20T14:58:36.648Z,9.18
2023-01-20T15:01:06.892Z,5.68
2023-01-20T15:03:35.063Z,7.75
2023-01-20T15:06:09.271Z,5.45
2023-01-20T15:11:14.702Z,4.78
2023-01-20T15:14:09.726Z,6.28
2023-01-20T15:16:43.230Z,5.28
2023-01-20T15:19:14.267Z,6.32
2023-01-20T15:21:46.205Z,8.23
2023-01-20T15:24:32.742Z,8.45
2023-01-20T15:27:02.599Z,7.88
2023-01-20T15:29:35.743Z,8.18
2023-01-20T15:32:11.369Z,6.50
2023-01-20T15:34:39.512Z,5.80
2023-01-20T15:37:18.730Z,6.88
2023-01-20T15:39:47.760Z,8.02
2023-01-20T15:42:16.145Z,8.05
2023-01-20T15:44:49.102Z,7.05
2023-01-20T15:49:46.159Z,11.30
2023-01-20T15:52:14.526Z,11.75
2023-01-20T15:54:43.605Z,9.90
2023-01-20T15:57:16.711Z,6.97
2023-01-20T15:59:46.331Z,7.63
2023-01-20T16:02:22.383Z,8.50
2023-01-20T16:04:50.639Z,5.75
2023-01-20T16:07:20.727Z,9.48
2023-01-20T16:09:48.832Z,6.30
2023-01-20T16:12:17.960Z,9.10
2023-01-20T16:14:45.988Z,10.98
2023-01-20T16:17:18.572Z,6.78
2023-01-20T16:19:47.308Z,9.95
2023-01-20T16:22:18.182Z,23.55
2023-01-20T16:24:49.207Z,23.67
2023-01-20T16:27:22.569Z,12.73
2023-01-20T16:29:51.160Z,7.68
2023-01-20T16:32:22.417Z,12.88
2023-01-20T16:34:50.724Z,17.42
2023-01-20T16:37:18.643Z,10.73
2023-01-20T16:39:46.559Z,12.85
2023-01-20T16:42:16.186Z,8.40
2023-01-20T16:44:44.145Z,8.38
2023-01-20T16:47:12.136Z,13.98
2023-01-20T16:49:40.865Z,13.60
2023-01-20T16:52:10.835Z,10.13
2023-01-20T16:54:38.931Z,8.15
2023-01-20T16:57:06.786Z,12.80
2023-01-20T16:59:35.398Z,12.00
2023-01-20T17:02:03.352Z,11.05
2023-01-20T17:04:31.386Z,8.65
2023-01-20T17:06:59.373Z,12.18
2023-01-20T17:09:27.185Z,10.13
2023-01-20T17:11:56.217Z,8.18
2023-01-20T17:14:24.118Z,7.60
2023-01-20T17:16:52.095Z,10.50
2023-01-20T17:19:20.134Z,11.77
2023-01-20T17:21:48.216Z,9.75
2023-01-20T17:24:17.436Z,14.48
2023-01-20T17:26:45.356Z,15.63
2023-01-20T17:29:13.703Z,11.18
2023-01-20T17:31:43.122Z,14.63
2023-01-20T17:34:11.739Z,16.73
2023-01-20T17:36:39.859Z,13.25
2023-01-20T17:39:08.501Z,16.65
2023-01-20T17:41:36.467Z,18.92
2023-01-20T17:44:06.360Z,17.33
2023-01-20T17:46:34.253Z,14.25
2023-01-20T17:49:04.867Z,18.15
2023-01-20T17:51:35.552Z,15.15
2023-01-20T17:54:04.193Z,20.38
2023-01-20T17:56:32.643Z,11.07
2023-01-20T17:59:00.495Z,9.93
2023-01-20T18:01:31.626Z,15.80
2023-01-20T18:04:01.182Z,12.77
2023-01-20T18:06:29.328Z,19.73
2023-01-20T18:09:00.641Z,12.20
2023-01-20T18:11:31.779Z,13.27
2023-01-20T18:14:00.729Z,17.67
2023-01-20T18:16:31.350Z,23.98
2023-01-20T18:18:59.407Z,15.13
2023-01-20T18:21:30.077Z,17.70
2023-01-20T18:23:58.889Z,18.27
2023-01-20T18:26:30.682Z,15.30
2023-01-20T18:29:04.639Z,14.77
2023-01-20T18:31:33.744Z,15.02
2023-01-20T18:34:04.383Z,15.80
2023-01-20T18:36:40.996Z,15.68
2023-01-20T18:39:12.756Z,18.40
2023-01-20T18:41:40.889Z,22.90
2023-01-20T18:44:09.405Z,16.80
2023-01-20T18:46:37.893Z,23.52
2023-01-20T18:49:09.294Z,23.02
2023-01-20T18:51:37.581Z,19.23
2023-01-20T18:54:09.815Z,18.88
2023-01-20T18:56:38.161Z,18.80
2023-01-20T18:59:07.143Z,17.30
2023-01-20T19:01:39.818Z,28.65
2023-01-20T19:04:10.886Z,29.63
2023-01-20T19:06:42.981Z,31.75
2023-01-20T19:09:12.957Z,26.45
2023-01-20T19:11:41.810Z,27.70
2023-01-20T19:14:13.811Z,25.70
2023-01-20T19:16:50.638Z,31.00
2023-01-20T19:19:19.806Z,27.02
2023-01-20T19:21:54.834Z,27.25
2023-01-20T19:24:22.817Z,29.58
2023-01-20T19:26:50.779Z,23.00
2023-01-20T19:29:19.153Z,20.05
2023-01-20T19:31:47.612Z,16.95
2023-01-20T19:34:16.268Z,16.55
2023-01-20T19:36:44.430Z,18.83
2023-01-20T19:39:13.759Z,13.38
2023-01-20T19:41:41.740Z,11.40
2023-01-20T19:44:16.630Z,12.93
2023-01-20T19:46:44.871Z,13.25
2023-01-20T19:49:15.452Z,11.80
2023-01-20T19:51:43.313Z,14.45
2023-01-20T19:54:13.727Z,14.75
2023-01-20T19:56:41.769Z,11.15
2023-01-20T19:59:12.248Z,13.75
2023-01-20T20:01:40.182Z,10.32
2023-01-20T20:04:13.210Z,13.18
2023-01-20T20:06:48.423Z,12.32
2023-01-20T20:09:20.912Z,11.05
2023-01-20T20:11:49.869Z,10.05
2023-01-20T20:14:19.634Z,10.70
2023-01-20T20:16:48.183Z,10.43
2023-01-20T20:19:19.305Z,11.00
2023-01-20T20:21:47.393Z,11.82
2023-01-20T20:24:17.495Z,12.82
2023-01-20T20:26:46.654Z,10.15
2023-01-20T20:29:16.512Z,13.00
2023-01-20T20:31:44.715Z,10.85
2023-01-20T20:34:18.304Z,9.55
2023-01-20T20:36:46.941Z,12.00
2023-01-20T20:39:18.023Z,12.60
2023-01-20T20:41:47.005Z,9.95
2023-01-20T20:44:15.054Z,9.10
2023-01-20T20:46:43.906Z,13.85
2023-01-20T20:49:15.564Z,9.23
2023-01-20T20:51:44.074Z,11.23
2023-01-20T20:54:15.431Z,12.25
2023-01-20T20:56:44.241Z,10.45
2023-01-20T20:59:12.232Z,10.80
2023-01-20T21:01:40.468Z,13.85
2023-01-20T21:04:09.917Z,13.73
2023-01-20T21:06:37.783Z,12.93
2023-01-20T21:09:05.664Z,13.88
2023-01-20T21:11:33.759Z,10.02
2023-01-20T21:14:02.087Z,14.35
2023-01-20T21:16:30.147Z,16.10
2023-01-20T21:18:59.311Z,14.10
2023-01-20T21:21:30.084Z,15.02
2023-01-20T21:24:00.260Z,16.38
2023-01-20T21:26:31.787Z,16.05
2023-01-20T21:29:02.212Z,21.83
2023-01-20T21:31:31.668Z,20.77
2023-01-20T21:34:00.782Z,19.85
2023-01-20T21:36:30.297Z,18.08
2023-01-20T21:39:00.397Z,15.23
2023-01-20T21:41:28.105Z,14.98
2023-01-20T21:44:15.147Z,13.30
2023-01-20T21:46:43.033Z,18.02
2023-01-20T21:49:29.314Z,18.50
2023-01-20T21:52:15.869Z,15.25
2023-01-20T21:54:45.534Z,13.73
2023-01-20T21:57:14.754Z,16.08
2023-01-20T21:59:43.295Z,17.42
2023-01-20T22:02:13.544Z,15.80
2023-01-20T22:04:41.629Z,13.52
2023-01-20T22:07:10.473Z,17.48
2023-01-20T22:09:38.795Z,21.08
2023-01-20T22:12:07.229Z,20.92
2023-01-20T22:14:34.997Z,18.40
2023-01-20T22:17:02.770Z,20.33
2023-01-20T22:19:30.430Z,19.05
2023-01-20T22:22:02.800Z,21.60
2023-01-20T22:24:30.859Z,20.25
2023-01-20T22:26:58.986Z,17.35
2023-01-20T22:29:27.040Z,19.15
2023-01-20T22:31:55.790Z,19.38
2023-01-20T22:34:23.627Z,20.25
2023-01-20T22:36:51.330Z,21.02
2023-01-20T22:39:19.145Z,22.27
2023-01-20T22:41:46.840Z,23.83
2023-01-20T22:44:15.005Z,25.85
2023-01-20T22:46:42.664Z,23.20
2023-01-20T22:49:11.568Z,25.23
2023-01-20T22:51:39.214Z,22.75
2023-01-20T22:54:08.786Z,24.42
2023-01-20T22:56:36.555Z,19.17
2023-01-20T22:59:04.280Z,17.73
2023-01-20T23:01:34.150Z,20.38
2023-01-20T23:04:04.837Z,16.02
2023-01-20T23:06:35.590Z,17.17
2023-01-20T23:09:07.198Z,19.80
2023-01-20T23:11:36.553Z,15.15
2023-01-20T23:14:04.843Z,21.63
2023-01-20T23:16:32.632Z,20.83
2023-01-20T23:19:00.441Z,16.42
2023-01-20T23:21:28.126Z,15.18
2023-01-20T23:23:55.887Z,18.95
2023-01-20T23:26:26.223Z,16.63
2023-01-20T23:28:55.589Z,16.40
2023-01-20T23:31:25.303Z,14.93
2023-01-20T23:33:56.028Z,17.20
2023-01-20T23:36:25.765Z,16.40
2023-01-20T23:38:55.511Z,16.80
2023-01-20T23:41:23.592Z,20.48
2023-01-20T23:43:51.586Z,16.05
2023-01-20T23:46:20.906Z,13.27
2023-01-20T23:48:48.743Z,14.23
2023-01-20T23:51:16.772Z,17.95
2023-01-20T23:53:44.772Z,18.65
2023-01-20T23:56:18.580Z,13.05
2023-01-20T23:58:47.303Z,17.73
